sensor_id;sensor_type;location;lat;lon;timestamp;P1;durP1;ratioP1;P2;durP2;ratioP2
50815;SDS011;39717;47.324;8.788;2022-10-15T00:01:43;2.40;;;2.00;;
50815;SDS011;39717;47.324;8.788;2022-10-15T00:04:10;1.70;;;1.60;;
50815;SDS011;39717;47.324;8.788;2022-10-15T00:06:37;2.40;;;2.00;;
50815;SDS011;39717;47.324;8.788;2022-10-15T00:09:03;4.23;;;2.20;;
50815;SDS011;39717;47.324;8.788;2022-10-15T00:11:32;2.23;;;2.03;;
50815;SDS011;39717;47.324;8.788;2022-10-15T00:14:00;5.27;;;1.73;;
50815;SDS011;39717;47.324;8.788;2022-10-15T00:16:27;2.27;;;1.60;;
50815;SDS011;39717;47.324;8.788;2022-10-15T00:19:00;2.83;;;1.63;;
50815;SDS011;39717;47.324;8.788;2022-10-15T00:21:26;2.93;;;2.03;;
50815;SDS011;39717;47.324;8.788;2022-10-15T00:23:52;3.37;;;2.10;;
50815;SDS011;39717;47.324;8.788;2022-10-15T00:26:20;4.10;;;2.20;;
50815;SDS011;39717;47.324;8.788;2022-10-15T00:28:48;2.07;;;1.83;;
50815;SDS011;39717;47.324;8.788;2022-10-15T00:31:15;2.30;;;1.90;;
50815;SDS011;39717;47.324;8.788;2022-10-15T00:33:43;2.67;;;2.17;;
50815;SDS011;39717;47.324;8.788;2022-10-15T00:36:11;2.33;;;2.13;;
50815;SDS011;39717;47.324;8.788;2022-10-15T00:38:37;2.30;;;2.10;;
50815;SDS011;39717;47.324;8.788;2022-10-15T00:41:04;2.20;;;2.00;;
50815;SDS011;39717;47.324;8.788;2022-10-15T00:43:35;4.57;;;2.20;;
50815;SDS011;39717;47.324;8.788;2022-10-15T00:46:02;3.23;;;2.20;;
50815;SDS011;39717;47.324;8.788;2022-10-15T00:48:28;3.73;;;2.30;;
50815;SDS011;39717;47.324;8.788;2022-10-15T00:53:28;4.20;;;2.20;;
50815;SDS011;39717;47.324;8.788;2022-10-15T00:55:54;2.67;;;2.10;;
50815;SDS011;39717;47.324;8.788;2022-10-15T00:58:20;3.87;;;2.07;;
50815;SDS011;39717;47.324;8.788;2022-10-15T01:00:52;2.37;;;1.80;;
50815;SDS011;39717;47.324;8.788;2022-10-15T01:03:19;2.53;;;2.13;;
50815;SDS011;39717;47.324;8.788;2022-10-15T01:08:37;2.40;;;2.20;;
50815;SDS011;39717;47.324;8.788;2022-10-15T01:11:09;1.87;;;1.77;;
50815;SDS011;39717;47.324;8.788;2022-10-15T01:29:58;4.70;;;2.70;;
50815;SDS011;39717;47.324;8.788;2022-10-15T01:32:37;2.10;;;1.87;;
50815;SDS011;39717;47.324;8.788;2022-10-15T01:40:07;2.10;;;1.90;;
50815;SDS011;39717;47.324;8.788;2022-10-15T01:42:47;3.60;;;1.97;;
50815;SDS011;39717;47.324;8.788;2022-10-15T01:45:16;1.83;;;1.70;;
50815;SDS011;39717;47.324;8.788;2022-10-15T01:50:36;3.37;;;2.00;;
50815;SDS011;39717;47.324;8.788;2022-10-15T01:53:05;2.77;;;2.00;;
50815;SDS011;39717;47.324;8.788;2022-10-15T01:55:38;2.43;;;1.80;;
50815;SDS011;39717;47.324;8.788;2022-10-15T01:58:14;2.20;;;2.00;;
50815;SDS011;39717;47.324;8.788;2022-10-15T02:00:43;5.30;;;3.30;;
50815;SDS011;39717;47.324;8.788;2022-10-15T02:03:09;3.70;;;1.97;;
50815;SDS011;39717;47.324;8.788;2022-10-15T02:05:37;2.30;;;1.90;;
50815;SDS011;39717;47.324;8.788;2022-10-15T02:10:39;2.30;;;2.10;;
50815;SDS011;39717;47.324;8.788;2022-10-15T02:15:45;1.80;;;1.70;;
50815;SDS011;39717;47.324;8.788;2022-10-15T02:21:23;1.60;;;1.40;;
50815;SDS011;39717;47.324;8.788;2022-10-15T02:23:44;2.97;;;1.60;;
50815;SDS011;39717;47.324;8.788;2022-10-15T02:26:12;2.87;;;1.40;;
50815;SDS011;39717;47.324;8.788;2022-10-15T02:28:41;2.80;;;1.60;;
50815;SDS011;39717;47.324;8.788;2022-10-15T02:31:07;2.10;;;1.60;;
50815;SDS011;39717;47.324;8.788;2022-10-15T02:33:35;2.80;;;1.70;;
50815;SDS011;39717;47.324;8.788;2022-10-15T02:36:02;1.60;;;1.50;;
50815;SDS011;39717;47.324;8.788;2022-10-15T02:38:29;1.70;;;1.60;;
50815;SDS011;39717;47.324;8.788;2022-10-15T02:40:57;1.47;;;1.30;;
50815;SDS011;39717;47.324;8.788;2022-10-15T02:43:26;1.60;;;1.50;;
50815;SDS011;39717;47.324;8.788;2022-10-15T02:45:52;1.93;;;1.50;;
50815;SDS011;39717;47.324;8.788;2022-10-15T02:48:19;2.83;;;1.63;;
50815;SDS011;39717;47.324;8.788;2022-10-15T02:50:45;1.70;;;1.47;;
50815;SDS011;39717;47.324;8.788;2022-10-15T02:53:11;1.37;;;1.27;;
50815;SDS011;39717;47.324;8.788;2022-10-15T02:55:38;1.60;;;1.50;;
50815;SDS011;39717;47.324;8.788;2022-10-15T03:00:35;1.40;;;1.30;;
50815;SDS011;39717;47.324;8.788;2022-10-15T03:03:02;1.50;;;1.40;;
50815;SDS011;39717;47.324;8.788;2022-10-15T03:05:29;2.07;;;1.60;;
50815;SDS011;39717;47.324;8.788;2022-10-15T03:07:57;3.07;;;1.30;;
50815;SDS011;39717;47.324;8.788;2022-10-15T03:13:15;1.20;;;1.10;;
50815;SDS011;39717;47.324;8.788;2022-10-15T03:15:41;1.43;;;1.20;;
50815;SDS011;39717;47.324;8.788;2022-10-15T03:18:08;2.33;;;1.03;;
50815;SDS011;39717;47.324;8.788;2022-10-15T03:20:35;1.97;;;1.40;;
50815;SDS011;39717;47.324;8.788;2022-10-15T03:23:03;4.37;;;3.77;;
50815;SDS011;39717;47.324;8.788;2022-10-15T03:25:29;4.40;;;2.83;;
50815;SDS011;39717;47.324;8.788;2022-10-15T03:27:55;2.40;;;2.20;;
50815;SDS011;39717;47.324;8.788;2022-10-15T03:30:22;1.93;;;1.70;;
50815;SDS011;39717;47.324;8.788;2022-10-15T03:32:49;2.00;;;1.80;;
50815;SDS011;39717;47.324;8.788;2022-10-15T03:35:17;1.60;;;1.43;;
50815;SDS011;39717;47.324;8.788;2022-10-15T03:37:44;1.50;;;1.40;;
50815;SDS011;39717;47.324;8.788;2022-10-15T03:40:10;3.63;;;1.40;;
50815;SDS011;39717;47.324;8.788;2022-10-15T03:42:36;2.17;;;1.47;;
50815;SDS011;39717;47.324;8.788;2022-10-15T03:45:02;1.50;;;1.30;;
50815;SDS011;39717;47.324;8.788;2022-10-15T03:47:34;1.20;;;1.20;;
50815;SDS011;39717;47.324;8.788;2022-10-15T03:50:01;1.83;;;1.30;;
50815;SDS011;39717;47.324;8.788;2022-10-15T03:52:28;1.70;;;1.30;;
50815;SDS011;39717;47.324;8.788;2022-10-15T03:54:54;1.60;;;1.50;;
50815;SDS011;39717;47.324;8.788;2022-10-15T03:57:20;2.10;;;1.30;;
50815;SDS011;39717;47.324;8.788;2022-10-15T03:59:47;1.50;;;1.40;;
50815;SDS011;39717;47.324;8.788;2022-10-15T04:02:13;1.50;;;1.40;;
50815;SDS011;39717;47.324;8.788;2022-10-15T04:04:39;1.57;;;1.47;;
50815;SDS011;39717;47.324;8.788;2022-10-15T04:07:06;1.83;;;1.23;;
50815;SDS011;39717;47.324;8.788;2022-10-15T04:09:32;1.40;;;1.30;;
50815;SDS011;39717;47.324;8.788;2022-10-15T04:11:58;1.50;;;1.40;;
50815;SDS011;39717;47.324;8.788;2022-10-15T04:14:24;1.77;;;1.50;;
50815;SDS011;39717;47.324;8.788;2022-10-15T04:16:50;1.37;;;1.27;;
50815;SDS011;39717;47.324;8.788;2022-10-15T04:22:07;2.57;;;1.67;;
50815;SDS011;39717;47.324;8.788;2022-10-15T04:24:33;1.87;;;1.40;;
50815;SDS011;39717;47.324;8.788;2022-10-15T04:27:01;1.30;;;1.20;;
50815;SDS011;39717;47.324;8.788;2022-10-15T04:29:28;1.00;;;1.00;;
50815;SDS011;39717;47.324;8.788;2022-10-15T04:31:54;2.53;;;1.60;;
50815;SDS011;39717;47.324;8.788;2022-10-15T04:34:21;3.83;;;1.53;;
50815;SDS011;39717;47.324;8.788;2022-10-15T04:36:48;2.33;;;1.40;;
50815;SDS011;39717;47.324;8.788;2022-10-15T04:39:16;1.20;;;1.10;;
50815;SDS011;39717;47.324;8.788;2022-10-15T04:41:42;1.67;;;1.57;;
50815;SDS011;39717;47.324;8.788;2022-10-15T04:44:09;2.47;;;1.30;;
50815;SDS011;39717;47.324;8.788;2022-10-15T04:46:35;1.40;;;1.30;;
50815;SDS011;39717;47.324;8.788;2022-10-15T04:49:02;3.07;;;1.30;;
50815;SDS011;39717;47.324;8.788;2022-10-15T04:51:28;1.20;;;1.10;;
50815;SDS011;39717;47.324;8.788;2022-10-15T04:53:55;1.40;;;1.17;;
50815;SDS011;39717;47.324;8.788;2022-10-15T04:56:22;3.90;;;2.27;;
50815;SDS011;39717;47.324;8.788;2022-10-15T04:58:49;2.63;;;1.90;;
50815;SDS011;39717;47.324;8.788;2022-10-15T05:01:18;1.87;;;1.33;;
50815;SDS011;39717;47.324;8.788;2022-10-15T05:03:46;2.63;;;1.50;;
50815;SDS011;39717;47.324;8.788;2022-10-15T05:06:17;1.90;;;1.60;;
50815;SDS011;39717;47.324;8.788;2022-10-15T05:08:44;2.07;;;1.50;;
50815;SDS011;39717;47.324;8.788;2022-10-15T05:14:08;1.33;;;1.23;;
50815;SDS011;39717;47.324;8.788;2022-10-15T05:16:35;5.47;;;1.60;;
50815;SDS011;39717;47.324;8.788;2022-10-15T05:19:02;1.50;;;1.40;;
50815;SDS011;39717;47.324;8.788;2022-10-15T05:21:29;1.47;;;1.30;;
50815;SDS011;39717;47.324;8.788;2022-10-15T05:23:56;2.33;;;1.20;;
50815;SDS011;39717;47.324;8.788;2022-10-15T05:29:13;1.20;;;1.10;;
50815;SDS011;39717;47.324;8.788;2022-10-15T05:31:39;2.43;;;1.50;;
50815;SDS011;39717;47.324;8.788;2022-10-15T05:34:07;3.23;;;1.63;;
50815;SDS011;39717;47.324;8.788;2022-10-15T05:36:35;1.93;;;1.40;;
50815;SDS011;39717;47.324;8.788;2022-10-15T05:39:02;2.20;;;2.00;;
50815;SDS011;39717;47.324;8.788;2022-10-15T05:41:29;2.93;;;1.80;;
50815;SDS011;39717;47.324;8.788;2022-10-15T05:43:56;1.40;;;1.20;;
50815;SDS011;39717;47.324;8.788;2022-10-15T05:46:24;1.83;;;1.57;;
50815;SDS011;39717;47.324;8.788;2022-10-15T05:48:53;1.50;;;1.40;;
50815;SDS011;39717;47.324;8.788;2022-10-15T05:51:19;1.80;;;1.40;;
50815;SDS011;39717;47.324;8.788;2022-10-15T05:53:46;1.90;;;1.47;;
50815;SDS011;39717;47.324;8.788;2022-10-15T05:56:14;2.13;;;1.60;;
50815;SDS011;39717;47.324;8.788;2022-10-15T05:58:40;2.57;;;1.60;;
50815;SDS011;39717;47.324;8.788;2022-10-15T06:01:08;5.37;;;1.80;;
50815;SDS011;39717;47.324;8.788;2022-10-15T06:03:37;1.70;;;1.60;;
50815;SDS011;39717;47.324;8.788;2022-10-15T06:06:03;2.30;;;1.83;;
50815;SDS011;39717;47.324;8.788;2022-10-15T06:08:30;1.93;;;1.80;;
50815;SDS011;39717;47.324;8.788;2022-10-15T06:11:02;3.17;;;1.47;;
50815;SDS011;39717;47.324;8.788;2022-10-15T06:16:01;1.83;;;1.37;;
50815;SDS011;39717;47.324;8.788;2022-10-15T06:18:28;1.60;;;1.50;;
50815;SDS011;39717;47.324;8.788;2022-10-15T06:20:54;2.30;;;1.57;;
50815;SDS011;39717;47.324;8.788;2022-10-15T06:23:20;1.50;;;1.40;;
50815;SDS011;39717;47.324;8.788;2022-10-15T06:25:49;1.93;;;1.37;;
50815;SDS011;39717;47.324;8.788;2022-10-15T06:28:15;1.70;;;1.60;;
50815;SDS011;39717;47.324;8.788;2022-10-15T06:30:42;2.97;;;1.47;;
50815;SDS011;39717;47.324;8.788;2022-10-15T06:33:08;1.97;;;1.57;;
50815;SDS011;39717;47.324;8.788;2022-10-15T06:35:34;2.03;;;1.70;;
50815;SDS011;39717;47.324;8.788;2022-10-15T06:38:01;1.50;;;1.40;;
50815;SDS011;39717;47.324;8.788;2022-10-15T06:40:34;2.43;;;1.60;;
50815;SDS011;39717;47.324;8.788;2022-10-15T06:45:52;5.67;;;2.10;;
50815;SDS011;39717;47.324;8.788;2022-10-15T06:48:18;2.20;;;2.00;;
50815;SDS011;39717;47.324;8.788;2022-10-15T06:50:45;2.40;;;2.03;;
50815;SDS011;39717;47.324;8.788;2022-10-15T06:53:12;3.07;;;1.40;;
50815;SDS011;39717;47.324;8.788;2022-10-15T06:55:40;2.37;;;1.93;;
50815;SDS011;39717;47.324;8.788;2022-10-15T06:58:07;2.00;;;1.80;;
50815;SDS011;39717;47.324;8.788;2022-10-15T07:00:33;1.90;;;1.73;;
50815;SDS011;39717;47.324;8.788;2022-10-15T07:05:50;1.90;;;1.70;;
50815;SDS011;39717;47.324;8.788;2022-10-15T07:08:17;1.97;;;1.57;;
50815;SDS011;39717;47.324;8.788;2022-10-15T07:10:43;1.63;;;1.30;;
50815;SDS011;39717;47.324;8.788;2022-10-15T07:13:09;1.70;;;1.50;;
50815;SDS011;39717;47.324;8.788;2022-10-15T07:15:35;3.20;;;1.40;;
50815;SDS011;39717;47.324;8.788;2022-10-15T07:18:01;1.70;;;1.60;;
50815;SDS011;39717;47.324;8.788;2022-10-15T07:20:28;2.63;;;1.30;;
50815;SDS011;39717;47.324;8.788;2022-10-15T07:22:57;1.60;;;1.47;;
50815;SDS011;39717;47.324;8.788;2022-10-15T07:25:24;1.20;;;1.10;;
50815;SDS011;39717;47.324;8.788;2022-10-15T07:27:50;1.83;;;1.13;;
50815;SDS011;39717;47.324;8.788;2022-10-15T07:30:18;1.00;;;1.00;;
50815;SDS011;39717;47.324;8.788;2022-10-15T07:32:45;1.33;;;1.23;;
50815;SDS011;39717;47.324;8.788;2022-10-15T07:35:11;1.40;;;1.13;;
50815;SDS011;39717;47.324;8.788;2022-10-15T07:37:37;2.20;;;0.90;;
50815;SDS011;39717;47.324;8.788;2022-10-15T07:40:03;1.37;;;0.73;;
50815;SDS011;39717;47.324;8.788;2022-10-15T07:42:29;1.17;;;1.07;;
50815;SDS011;39717;47.324;8.788;2022-10-15T07:44:55;1.10;;;1.00;;
50815;SDS011;39717;47.324;8.788;2022-10-15T07:47:28;1.53;;;1.30;;
50815;SDS011;39717;47.324;8.788;2022-10-15T07:49:56;1.50;;;1.00;;
50815;SDS011;39717;47.324;8.788;2022-10-15T07:52:22;0.97;;;0.90;;
50815;SDS011;39717;47.324;8.788;2022-10-15T07:54:48;0.90;;;0.90;;
50815;SDS011;39717;47.324;8.788;2022-10-15T07:57:21;1.17;;;1.00;;
50815;SDS011;39717;47.324;8.788;2022-10-15T07:59:49;1.77;;;1.00;;
50815;SDS011;39717;47.324;8.788;2022-10-15T08:02:16;1.43;;;1.20;;
50815;SDS011;39717;47.324;8.788;2022-10-15T08:04:44;1.60;;;1.30;;
50815;SDS011;39717;47.324;8.788;2022-10-15T08:07:12;1.30;;;1.20;;
50815;SDS011;39717;47.324;8.788;2022-10-15T08:09:40;1.10;;;1.10;;
50815;SDS011;39717;47.324;8.788;2022-10-15T08:12:06;1.37;;;1.13;;
50815;SDS011;39717;47.324;8.788;2022-10-15T08:14:34;0.80;;;0.80;;
50815;SDS011;39717;47.324;8.788;2022-10-15T08:17:02;1.20;;;1.10;;
50815;SDS011;39717;47.324;8.788;2022-10-15T08:22:03;1.50;;;1.20;;
50815;SDS011;39717;47.324;8.788;2022-10-15T08:24:29;2.57;;;1.47;;
50815;SDS011;39717;47.324;8.788;2022-10-15T08:26:57;3.10;;;1.40;;
50815;SDS011;39717;47.324;8.788;2022-10-15T08:29:23;3.60;;;1.40;;
50815;SDS011;39717;47.324;8.788;2022-10-15T08:31:52;2.43;;;1.47;;
50815;SDS011;39717;47.324;8.788;2022-10-15T08:34:18;4.27;;;1.60;;
50815;SDS011;39717;47.324;8.788;2022-10-15T08:36:45;2.60;;;1.10;;
50815;SDS011;39717;47.324;8.788;2022-10-15T08:39:11;2.47;;;1.33;;
50815;SDS011;39717;47.324;8.788;2022-10-15T08:46:41;1.10;;;1.00;;
50815;SDS011;39717;47.324;8.788;2022-10-15T08:49:13;1.73;;;1.00;;
50815;SDS011;39717;47.324;8.788;2022-10-15T08:51:52;1.60;;;1.07;;
50815;SDS011;39717;47.324;8.788;2022-10-15T09:00:22;3.83;;;1.00;;
50815;SDS011;39717;47.324;8.788;2022-10-15T09:16:28;2.33;;;1.13;;
50815;SDS011;39717;47.324;8.788;2022-10-15T09:19:03;1.70;;;1.03;;
50815;SDS011;39717;47.324;8.788;2022-10-15T09:21:31;1.00;;;0.90;;
50815;SDS011;39717;47.324;8.788;2022-10-15T09:24:03;1.50;;;1.00;;
50815;SDS011;39717;47.324;8.788;2022-10-15T09:32:40;1.10;;;1.00;;
50815;SDS011;39717;47.324;8.788;2022-10-15T09:38:25;1.20;;;1.10;;
50815;SDS011;39717;47.324;8.788;2022-10-15T09:43:40;1.23;;;1.00;;
50815;SDS011;39717;47.324;8.788;2022-10-15T09:46:08;1.13;;;1.03;;
50815;SDS011;39717;47.324;8.788;2022-10-15T09:48:47;1.00;;;0.90;;
50815;SDS011;39717;47.324;8.788;2022-10-15T09:56:47;1.10;;;1.00;;
50815;SDS011;39717;47.324;8.788;2022-10-15T09:59:18;0.97;;;0.97;;
50815;SDS011;39717;47.324;8.788;2022-10-15T10:04:30;1.57;;;1.00;;
50815;SDS011;39717;47.324;8.788;2022-10-15T10:07:01;1.30;;;1.20;;
50815;SDS011;39717;47.324;8.788;2022-10-15T10:09:30;0.80;;;0.80;;
50815;SDS011;39717;47.324;8.788;2022-10-15T10:11:59;0.70;;;0.70;;
50815;SDS011;39717;47.324;8.788;2022-10-15T10:14:30;1.53;;;0.80;;
50815;SDS011;39717;47.324;8.788;2022-10-15T10:17:11;0.90;;;0.90;;
50815;SDS011;39717;47.324;8.788;2022-10-15T10:19:41;1.37;;;0.80;;
50815;SDS011;39717;47.324;8.788;2022-10-15T10:22:25;1.30;;;1.00;;
50815;SDS011;39717;47.324;8.788;2022-10-15T10:24:57;1.63;;;0.87;;
50815;SDS011;39717;47.324;8.788;2022-10-15T10:27:24;0.90;;;0.90;;
50815;SDS011;39717;47.324;8.788;2022-10-15T10:32:55;0.70;;;0.70;;
50815;SDS011;39717;47.324;8.788;2022-10-15T10:35:23;0.83;;;0.80;;
50815;SDS011;39717;47.324;8.788;2022-10-15T10:37:50;2.80;;;1.40;;
50815;SDS011;39717;47.324;8.788;2022-10-15T10:45:21;0.70;;;0.70;;
50815;SDS011;39717;47.324;8.788;2022-10-15T10:47:49;1.90;;;0.90;;
50815;SDS011;39717;47.324;8.788;2022-10-15T10:50:31;0.90;;;0.87;;
50815;SDS011;39717;47.324;8.788;2022-10-15T10:52:57;1.40;;;0.80;;
50815;SDS011;39717;47.324;8.788;2022-10-15T10:55:36;1.10;;;0.83;;
50815;SDS011;39717;47.324;8.788;2022-10-15T10:58:04;1.07;;;0.83;;
50815;SDS011;39717;47.324;8.788;2022-10-15T11:03:38;1.13;;;0.87;;
50815;SDS011;39717;47.324;8.788;2022-10-15T11:14:01;1.30;;;1.20;;
50815;SDS011;39717;47.324;8.788;2022-10-15T11:19:33;1.10;;;1.00;;
50815;SDS011;39717;47.324;8.788;2022-10-15T11:25:12;1.77;;;1.10;;
50815;SDS011;39717;47.324;8.788;2022-10-15T11:38:35;1.30;;;1.10;;
50815;SDS011;39717;47.324;8.788;2022-10-15T11:46:29;1.70;;;0.80;;
50815;SDS011;39717;47.324;8.788;2022-10-15T11:49:22;1.23;;;1.10;;
50815;SDS011;39717;47.324;8.788;2022-10-15T11:54:36;1.20;;;1.00;;
50815;SDS011;39717;47.324;8.788;2022-10-15T11:57:03;1.10;;;1.00;;
50815;SDS011;39717;47.324;8.788;2022-10-15T12:02:16;1.43;;;0.90;;
50815;SDS011;39717;47.324;8.788;2022-10-15T12:04:53;1.63;;;1.00;;
50815;SDS011;39717;47.324;8.788;2022-10-15T12:07:23;0.73;;;0.73;;
50815;SDS011;39717;47.324;8.788;2022-10-15T12:09:51;2.63;;;0.87;;
50815;SDS011;39717;47.324;8.788;2022-10-15T12:12:27;1.27;;;1.17;;
50815;SDS011;39717;47.324;8.788;2022-10-15T12:18:01;0.70;;;0.70;;
50815;SDS011;39717;47.324;8.788;2022-10-15T12:20:28;2.73;;;0.87;;
50815;SDS011;39717;47.324;8.788;2022-10-15T12:22:56;1.87;;;0.80;;
50815;SDS011;39717;47.324;8.788;2022-10-15T12:28:37;1.80;;;0.90;;
50815;SDS011;39717;47.324;8.788;2022-10-15T12:33:24;1.20;;;0.90;;
50815;SDS011;39717;47.324;8.788;2022-10-15T12:35:54;0.93;;;0.93;;
50815;SDS011;39717;47.324;8.788;2022-10-15T12:44:19;4.77;;;1.20;;
50815;SDS011;39717;47.324;8.788;2022-10-15T12:46:44;0.80;;;0.80;;
50815;SDS011;39717;47.324;8.788;2022-10-15T12:51:56;1.50;;;0.87;;
50815;SDS011;39717;47.324;8.788;2022-10-15T13:02:44;2.30;;;1.20;;
50815;SDS011;39717;47.324;8.788;2022-10-15T13:05:30;2.70;;;1.00;;
50815;SDS011;39717;47.324;8.788;2022-10-15T13:07:57;2.20;;;1.00;;
50815;SDS011;39717;47.324;8.788;2022-10-15T13:10:33;2.20;;;1.10;;
50815;SDS011;39717;47.324;8.788;2022-10-15T13:13:03;2.67;;;1.20;;
50815;SDS011;39717;47.324;8.788;2022-10-15T13:15:30;1.43;;;1.30;;
50815;SDS011;39717;47.324;8.788;2022-10-15T13:18:30;1.27;;;1.17;;
50815;SDS011;39717;47.324;8.788;2022-10-15T13:20:49;1.17;;;1.07;;
50815;SDS011;39717;47.324;8.788;2022-10-15T13:29:03;1.63;;;1.17;;
50815;SDS011;39717;47.324;8.788;2022-10-15T13:31:31;1.00;;;1.00;;
50815;SDS011;39717;47.324;8.788;2022-10-15T13:34:46;1.43;;;1.00;;
50815;SDS011;39717;47.324;8.788;2022-10-15T13:36:49;3.73;;;1.50;;
50815;SDS011;39717;47.324;8.788;2022-10-15T13:42:05;1.23;;;1.00;;
50815;SDS011;39717;47.324;8.788;2022-10-15T13:44:31;1.57;;;1.10;;
50815;SDS011;39717;47.324;8.788;2022-10-15T13:47:00;2.50;;;1.20;;
50815;SDS011;39717;47.324;8.788;2022-10-15T13:49:32;2.23;;;1.00;;
50815;SDS011;39717;47.324;8.788;2022-10-15T13:52:02;1.93;;;1.00;;
50815;SDS011;39717;47.324;8.788;2022-10-15T13:54:36;3.33;;;1.20;;
50815;SDS011;39717;47.324;8.788;2022-10-15T13:57:03;1.23;;;1.00;;
50815;SDS011;39717;47.324;8.788;2022-10-15T13:59:30;1.63;;;1.00;;
50815;SDS011;39717;47.324;8.788;2022-10-15T14:01:57;1.63;;;0.90;;
50815;SDS011;39717;47.324;8.788;2022-10-15T14:04:26;2.67;;;1.10;;
50815;SDS011;39717;47.324;8.788;2022-10-15T14:06:56;2.07;;;1.00;;
50815;SDS011;39717;47.324;8.788;2022-10-15T14:11:59;2.17;;;1.20;;
50815;SDS011;39717;47.324;8.788;2022-10-15T14:14:27;1.30;;;1.20;;
50815;SDS011;39717;47.324;8.788;2022-10-15T14:16:58;0.90;;;0.90;;
50815;SDS011;39717;47.324;8.788;2022-10-15T14:19:29;2.87;;;1.30;;
50815;SDS011;39717;47.324;8.788;2022-10-15T14:21:56;1.47;;;1.17;;
50815;SDS011;39717;47.324;8.788;2022-10-15T14:24:27;1.90;;;1.00;;
50815;SDS011;39717;47.324;8.788;2022-10-15T14:27:07;1.63;;;1.27;;
50815;SDS011;39717;47.324;8.788;2022-10-15T14:29:43;0.97;;;0.90;;
50815;SDS011;39717;47.324;8.788;2022-10-15T14:32:19;1.20;;;1.10;;
50815;SDS011;39717;47.324;8.788;2022-10-15T14:34:48;3.13;;;1.33;;
50815;SDS011;39717;47.324;8.788;2022-10-15T14:48:19;1.30;;;1.20;;
50815;SDS011;39717;47.324;8.788;2022-10-15T14:50:47;1.30;;;1.20;;
50815;SDS011;39717;47.324;8.788;2022-10-15T14:53:17;2.30;;;1.00;;
50815;SDS011;39717;47.324;8.788;2022-10-15T14:58:52;1.83;;;1.20;;
50815;SDS011;39717;47.324;8.788;2022-10-15T15:01:26;1.67;;;1.13;;
50815;SDS011;39717;47.324;8.788;2022-10-15T15:03:56;1.13;;;1.07;;
50815;SDS011;39717;47.324;8.788;2022-10-15T15:06:22;2.67;;;1.27;;
50815;SDS011;39717;47.324;8.788;2022-10-15T15:08:48;1.47;;;1.23;;
50815;SDS011;39717;47.324;8.788;2022-10-15T15:11:16;1.70;;;1.23;;
50815;SDS011;39717;47.324;8.788;2022-10-15T15:13:47;2.43;;;1.20;;
50815;SDS011;39717;47.324;8.788;2022-10-15T15:16:14;4.43;;;1.33;;
50815;SDS011;39717;47.324;8.788;2022-10-15T15:18:42;1.17;;;1.07;;
50815;SDS011;39717;47.324;8.788;2022-10-15T15:21:13;3.07;;;1.20;;
50815;SDS011;39717;47.324;8.788;2022-10-15T15:23:43;1.47;;;1.37;;
50815;SDS011;39717;47.324;8.788;2022-10-15T15:26:09;1.40;;;1.30;;
50815;SDS011;39717;47.324;8.788;2022-10-15T15:28:34;3.73;;;1.37;;
50815;SDS011;39717;47.324;8.788;2022-10-15T15:31:03;1.30;;;1.20;;
50815;SDS011;39717;47.324;8.788;2022-10-15T15:33:38;1.97;;;1.20;;
50815;SDS011;39717;47.324;8.788;2022-10-15T15:36:08;3.20;;;1.27;;
50815;SDS011;39717;47.324;8.788;2022-10-15T15:38:42;2.00;;;1.27;;
50815;SDS011;39717;47.324;8.788;2022-10-15T15:41:12;2.03;;;1.40;;
50815;SDS011;39717;47.324;8.788;2022-10-15T15:43:43;3.10;;;1.30;;
50815;SDS011;39717;47.324;8.788;2022-10-15T15:46:10;2.57;;;1.40;;
50815;SDS011;39717;47.324;8.788;2022-10-15T15:48:35;1.33;;;1.23;;
50815;SDS011;39717;47.324;8.788;2022-10-15T15:54:11;3.13;;;1.30;;
50815;SDS011;39717;47.324;8.788;2022-10-15T15:56:37;2.00;;;1.27;;
50815;SDS011;39717;47.324;8.788;2022-10-15T15:59:05;2.97;;;1.20;;
50815;SDS011;39717;47.324;8.788;2022-10-15T16:01:30;0.90;;;0.90;;
50815;SDS011;39717;47.324;8.788;2022-10-15T16:03:57;1.30;;;1.20;;
50815;SDS011;39717;47.324;8.788;2022-10-15T16:06:23;4.80;;;1.50;;
50815;SDS011;39717;47.324;8.788;2022-10-15T16:08:52;1.57;;;1.47;;
50815;SDS011;39717;47.324;8.788;2022-10-15T16:11:17;2.33;;;1.37;;
50815;SDS011;39717;47.324;8.788;2022-10-15T16:13:43;3.73;;;1.40;;
50815;SDS011;39717;47.324;8.788;2022-10-15T16:16:09;1.27;;;1.17;;
50815;SDS011;39717;47.324;8.788;2022-10-15T16:18:35;1.67;;;1.40;;
50815;SDS011;39717;47.324;8.788;2022-10-15T16:21:02;1.73;;;1.37;;
50815;SDS011;39717;47.324;8.788;2022-10-15T16:23:28;2.87;;;1.50;;
50815;SDS011;39717;47.324;8.788;2022-10-15T16:25:54;2.83;;;1.40;;
50815;SDS011;39717;47.324;8.788;2022-10-15T16:28:22;1.70;;;1.50;;
50815;SDS011;39717;47.324;8.788;2022-10-15T16:30:48;2.30;;;1.40;;
50815;SDS011;39717;47.324;8.788;2022-10-15T16:33:15;2.20;;;1.80;;
50815;SDS011;39717;47.324;8.788;2022-10-15T16:35:41;2.83;;;1.80;;
50815;SDS011;39717;47.324;8.788;2022-10-15T16:38:10;2.43;;;2.00;;
50815;SDS011;39717;47.324;8.788;2022-10-15T16:40:36;4.53;;;2.67;;
50815;SDS011;39717;47.324;8.788;2022-10-15T16:43:03;4.30;;;3.13;;
50815;SDS011;39717;47.324;8.788;2022-10-15T16:45:29;5.03;;;2.43;;
50815;SDS011;39717;47.324;8.788;2022-10-15T16:47:56;2.60;;;1.80;;
50815;SDS011;39717;47.324;8.788;2022-10-15T16:50:23;4.00;;;2.00;;
50815;SDS011;39717;47.324;8.788;2022-10-15T16:52:49;2.80;;;1.97;;
50815;SDS011;39717;47.324;8.788;2022-10-15T16:55:15;4.20;;;2.63;;
50815;SDS011;39717;47.324;8.788;2022-10-15T16:57:41;7.40;;;3.30;;
50815;SDS011;39717;47.324;8.788;2022-10-15T17:00:10;7.70;;;4.10;;
50815;SDS011;39717;47.324;8.788;2022-10-15T17:02:36;12.63;;;5.70;;
50815;SDS011;39717;47.324;8.788;2022-10-15T17:05:04;10.63;;;5.60;;
50815;SDS011;39717;47.324;8.788;2022-10-15T17:07:30;10.93;;;5.43;;
50815;SDS011;39717;47.324;8.788;2022-10-15T17:09:56;11.03;;;4.40;;
50815;SDS011;39717;47.324;8.788;2022-10-15T17:12:22;6.63;;;3.77;;
50815;SDS011;39717;47.324;8.788;2022-10-15T17:14:58;12.20;;;3.77;;
50815;SDS011;39717;47.324;8.788;2022-10-15T17:17:25;7.17;;;3.77;;
50815;SDS011;39717;47.324;8.788;2022-10-15T17:19:53;4.93;;;3.20;;
50815;SDS011;39717;47.324;8.788;2022-10-15T17:22:21;6.00;;;2.90;;
50815;SDS011;39717;47.324;8.788;2022-10-15T17:24:48;5.80;;;3.43;;
50815;SDS011;39717;47.324;8.788;2022-10-15T17:27:15;4.50;;;2.37;;
50815;SDS011;39717;47.324;8.788;2022-10-15T17:29:41;5.13;;;2.57;;
50815;SDS011;39717;47.324;8.788;2022-10-15T17:32:08;7.43;;;2.63;;
50815;SDS011;39717;47.324;8.788;2022-10-15T17:34:36;4.80;;;2.73;;
50815;SDS011;39717;47.324;8.788;2022-10-15T17:37:02;5.90;;;2.80;;
50815;SDS011;39717;47.324;8.788;2022-10-15T17:39:29;4.87;;;2.70;;
50815;SDS011;39717;47.324;8.788;2022-10-15T17:41:55;3.20;;;2.70;;
50815;SDS011;39717;47.324;8.788;2022-10-15T17:44:22;4.07;;;2.43;;
50815;SDS011;39717;47.324;8.788;2022-10-15T17:46:48;3.90;;;3.20;;
50815;SDS011;39717;47.324;8.788;2022-10-15T17:49:14;3.83;;;2.60;;
50815;SDS011;39717;47.324;8.788;2022-10-15T17:51:42;7.00;;;3.40;;
50815;SDS011;39717;47.324;8.788;2022-10-15T17:54:11;5.60;;;3.57;;
50815;SDS011;39717;47.324;8.788;2022-10-15T17:56:38;5.63;;;3.17;;
50815;SDS011;39717;47.324;8.788;2022-10-15T17:59:06;4.50;;;3.57;;
50815;SDS011;39717;47.324;8.788;2022-10-15T18:01:35;6.60;;;3.37;;
50815;SDS011;39717;47.324;8.788;2022-10-15T18:04:02;4.73;;;2.90;;
50815;SDS011;39717;47.324;8.788;2022-10-15T18:06:28;3.23;;;2.80;;
50815;SDS011;39717;47.324;8.788;2022-10-15T18:08:54;5.73;;;2.50;;
50815;SDS011;39717;47.324;8.788;2022-10-15T18:14:13;3.07;;;2.73;;
50815;SDS011;39717;47.324;8.788;2022-10-15T18:16:40;4.37;;;3.27;;
50815;SDS011;39717;47.324;8.788;2022-10-15T18:19:13;6.03;;;3.00;;
50815;SDS011;39717;47.324;8.788;2022-10-15T18:21:41;5.20;;;3.37;;
50815;SDS011;39717;47.324;8.788;2022-10-15T18:24:08;4.67;;;3.30;;
50815;SDS011;39717;47.324;8.788;2022-10-15T18:26:35;5.40;;;3.07;;